sensor_id;sensor_type;location;lat;lon;timestamp;pressure;altitude;pressure_sealevel;temperature;humidity
21623;BME280;10973;46.706;12.340;2023-03-01T00:01:25;87537.84;;;-1.65;48.54
21623;BME280;10973;46.706;12.340;2023-03-01T00:03:53;87538.25;;;-1.72;48.88
21623;BME280;10973;46.706;12.340;2023-03-01T00:06:22;87537.97;;;-1.70;48.72
21623;BME280;10973;46.706;12.340;2023-03-01T00:08:50;87543.13;;;-1.70;48.97
21623;BME280;10973;46.706;12.340;2023-03-01T00:11:25;87536.91;;;-1.69;49.03
21623;BME280;10973;46.706;12.340;2023-03-01T00:13:56;87536.91;;;-1.69;49.16
21623;BME280;10973;46.706;12.340;2023-03-01T00:16:31;87544.78;;;-1.74;48.84
21623;BME280;10973;46.706;12.340;2023-03-01T00:18:59;87541.84;;;-1.81;49.38
21623;BME280;10973;46.706;12.340;2023-03-01T00:21:28;87538.31;;;-1.85;49.14
21623;BME280;10973;46.706;12.340;2023-03-01T00:23:55;87539.09;;;-1.85;49.02
21623;BME280;10973;46.706;12.340;2023-03-01T00:26:25;87546.94;;;-1.90;49.18
21623;BME280;10973;46.706;12.340;2023-03-01T00:28:54;87538.91;;;-1.88;49.27
21623;BME280;10973;46.706;12.340;2023-03-01T00:31:26;87539.41;;;-1.86;49.31
21623;BME280;10973;46.706;12.340;2023-03-01T00:34:03;87537.97;;;-1.92;49.36
21623;BME280;10973;46.706;12.340;2023-03-01T00:36:35;87531.09;;;-1.97;49.31
21623;BME280;10973;46.706;12.340;2023-03-01T00:39:07;87539.03;;;-1.93;49.23
21623;BME280;10973;46.706;12.340;2023-03-01T00:41:34;87532.66;;;-1.96;49.52
21623;BME280;10973;46.706;12.340;2023-03-01T00:44:02;87528.09;;;-1.90;49.36
21623;BME280;10973;46.706;12.340;2023-03-01T00:46:29;87524.78;;;-1.91;49.18
21623;BME280;10973;46.706;12.340;2023-03-01T00:48:57;87518.09;;;-1.92;49.69
21623;BME280;10973;46.706;12.340;2023-03-01T00:51:27;87522.22;;;-1.91;49.49
21623;BME280;10973;46.706;12.340;2023-03-01T00:54:00;87511.38;;;-1.93;49.56
21623;BME280;10973;46.706;12.340;2023-03-01T00:56:29;87507.00;;;-1.92;49.63
21623;BME280;10973;46.706;12.340;2023-03-01T00:58:57;87506.47;;;-2.03;49.36
21623;BME280;10973;46.706;12.340;2023-03-01T01:01:30;87504.94;;;-2.04;49.30
21623;BME280;10973;46.706;12.340;2023-03-01T01:04:05;87502.97;;;-2.07;49.35
21623;BME280;10973;46.706;12.340;2023-03-01T01:06:37;87501.63;;;-2.04;49.57
21623;BME280;10973;46.706;12.340;2023-03-01T01:09:06;87500.66;;;-2.08;49.61
21623;BME280;10973;46.706;12.340;2023-03-01T01:11:35;87497.59;;;-2.10;49.85
21623;BME280;10973;46.706;12.340;2023-03-01T01:14:03;87492.13;;;-2.09;49.73
21623;BME280;10973;46.706;12.340;2023-03-01T01:16:31;87485.63;;;-2.06;49.55
21623;BME280;10973;46.706;12.340;2023-03-01T01:18:58;87486.97;;;-2.09;49.52
21623;BME280;10973;46.706;12.340;2023-03-01T01:21:26;87483.81;;;-2.06;49.41
21623;BME280;10973;46.706;12.340;2023-03-01T01:23:55;87486.41;;;-2.06;49.21
21623;BME280;10973;46.706;12.340;2023-03-01T01:26:30;87475.56;;;-2.17;49.18
21623;BME280;10973;46.706;12.340;2023-03-01T01:29:00;87476.91;;;-2.19;49.23
21623;BME280;10973;46.706;12.340;2023-03-01T01:31:29;87478.09;;;-2.25;49.68
21623;BME280;10973;46.706;12.340;2023-03-01T01:33:59;87467.69;;;-2.34;50.00
21623;BME280;10973;46.706;12.340;2023-03-01T01:36:27;87474.84;;;-2.31;49.81
21623;BME280;10973;46.706;12.340;2023-03-01T01:38:55;87473.66;;;-2.25;49.71
21623;BME280;10973;46.706;12.340;2023-03-01T01:41:24;87470.91;;;-2.28;49.57
21623;BME280;10973;46.706;12.340;2023-03-01T01:44:25;87465.28;;;-2.30;49.61
21623;BME280;10973;46.706;12.340;2023-03-01T01:46:59;87476.50;;;-2.35;49.63
21623;BME280;10973;46.706;12.340;2023-03-01T01:52:24;87477.25;;;-2.34;49.58
21623;BME280;10973;46.706;12.340;2023-03-01T01:57:58;87466.28;;;-2.40;50.06
21623;BME280;10973;46.706;12.340;2023-03-01T02:00:29;87467.69;;;-2.34;50.38
21623;BME280;10973;46.706;12.340;2023-03-01T02:03:03;87456.41;;;-2.38;50.06
21623;BME280;10973;46.706;12.340;2023-03-01T02:05:57;87459.19;;;-2.34;50.23
21623;BME280;10973;46.706;12.340;2023-03-01T02:08:31;87457.34;;;-2.34;50.18
21623;BME280;10973;46.706;12.340;2023-03-01T02:11:00;87456.63;;;-2.34;50.54
21623;BME280;10973;46.706;12.340;2023-03-01T02:13:28;87460.66;;;-2.42;50.19
21623;BME280;10973;46.706;12.340;2023-03-01T02:15:57;87453.06;;;-2.38;50.28
21623;BME280;10973;46.706;12.340;2023-03-01T02:18:25;87449.25;;;-2.41;50.15
21623;BME280;10973;46.706;12.340;2023-03-01T02:23:50;87438.19;;;-2.41;50.68
21623;BME280;10973;46.706;12.340;2023-03-01T02:26:55;87432.56;;;-2.43;50.39
21623;BME280;10973;46.706;12.340;2023-03-01T02:29:24;87437.25;;;-2.45;50.63
21623;BME280;10973;46.706;12.340;2023-03-01T02:31:54;87426.44;;;-2.47;50.44
21623;BME280;10973;46.706;12.340;2023-03-01T02:34:25;87439.25;;;-2.42;50.61
21623;BME280;10973;46.706;12.340;2023-03-01T02:36:59;87438.78;;;-2.44;50.73
21623;BME280;10973;46.706;12.340;2023-03-01T02:39:42;87434.97;;;-2.47;50.71
21623;BME280;10973;46.706;12.340;2023-03-01T02:42:21;87433.44;;;-2.48;50.71
21623;BME280;10973;46.706;12.340;2023-03-01T02:44:53;87432.69;;;-2.48;50.83
21623;BME280;10973;46.706;12.340;2023-03-01T02:47:20;87433.16;;;-2.46;50.72
21623;BME280;10973;46.706;12.340;2023-03-01T02:49:47;87435.72;;;-2.46;50.87
21623;BME280;10973;46.706;12.340;2023-03-01T02:55:11;87430.56;;;-2.46;50.55
21623;BME280;10973;46.706;12.340;2023-03-01T02:57:43;87419.72;;;-2.57;51.02
21623;BME280;10973;46.706;12.340;2023-03-01T03:00:19;87433.97;;;-2.59;50.87
21623;BME280;10973;46.706;12.340;2023-03-01T03:02:53;87424.41;;;-2.59;50.94
21623;BME280;10973;46.706;12.340;2023-03-01T03:05:25;87425.34;;;-2.55;51.00
21623;BME280;10973;46.706;12.340;2023-03-01T03:07:54;87421.72;;;-2.54;50.97
21623;BME280;10973;46.706;12.340;2023-03-01T03:10:29;87419.72;;;-2.57;51.14
21623;BME280;10973;46.706;12.340;2023-03-01T03:13:00;87421.94;;;-2.64;51.01
21623;BME280;10973;46.706;12.340;2023-03-01T03:15:29;87439.22;;;-2.64;50.43
21623;BME280;10973;46.706;12.340;2023-03-01T03:17:58;87428.56;;;-2.71;51.00
21623;BME280;10973;46.706;12.340;2023-03-01T03:20:28;87426.84;;;-2.76;51.32
21623;BME280;10973;46.706;12.340;2023-03-01T03:22:57;87420.53;;;-2.70;51.27
21623;BME280;10973;46.706;12.340;2023-03-01T03:25:26;87418.41;;;-2.68;51.45
21623;BME280;10973;46.706;12.340;2023-03-01T03:27:55;87421.13;;;-2.73;51.21
21623;BME280;10973;46.706;12.340;2023-03-01T03:30:29;87425.50;;;-2.73;51.42
21623;BME280;10973;46.706;12.340;2023-03-01T03:32:58;87422.00;;;-2.77;51.50
21623;BME280;10973;46.706;12.340;2023-03-01T03:35:44;87415.97;;;-2.73;51.26
21623;BME280;10973;46.706;12.340;2023-03-01T03:38:13;87408.88;;;-2.67;51.55
21623;BME280;10973;46.706;12.340;2023-03-01T03:43:23;87408.28;;;-2.64;51.83
21623;BME280;10973;46.706;12.340;2023-03-01T03:45:51;87412.09;;;-2.62;51.68
21623;BME280;10973;46.706;12.340;2023-03-01T03:48:19;87412.09;;;-2.62;51.51
21623;BME280;10973;46.706;12.340;2023-03-01T03:50:55;87407.09;;;-2.58;51.71
21623;BME280;10973;46.706;12.340;2023-03-01T03:53:25;87406.69;;;-2.52;51.75
21623;BME280;10973;46.706;12.340;2023-03-01T03:55:53;87405.66;;;-2.51;51.80
21623;BME280;10973;46.706;12.340;2023-03-01T03:58:23;87399.84;;;-2.56;52.02
21623;BME280;10973;46.706;12.340;2023-03-01T04:00:55;87406.69;;;-2.52;51.98
21623;BME280;10973;46.706;12.340;2023-03-01T04:03:24;87400.31;;;-2.54;51.54
21623;BME280;10973;46.706;12.340;2023-03-01T04:05:52;87400.03;;;-2.53;52.01
21623;BME280;10973;46.706;12.340;2023-03-01T04:08:24;87397.16;;;-2.51;52.12
21623;BME280;10973;46.706;12.340;2023-03-01T04:10:58;87394.56;;;-2.51;52.53
21623;BME280;10973;46.706;12.340;2023-03-01T04:13:26;87401.88;;;-2.45;52.67
21623;BME280;10973;46.706;12.340;2023-03-01T04:15:54;87393.09;;;-2.44;52.11
21623;BME280;10973;46.706;12.340;2023-03-01T04:18:23;87387.53;;;-2.37;52.42
21623;BME280;10973;46.706;12.340;2023-03-01T04:20:52;87393.47;;;-2.37;52.73
21623;BME280;10973;46.706;12.340;2023-03-01T04:23:21;87383.41;;;-2.38;52.49
21623;BME280;10973;46.706;12.340;2023-03-01T04:25:55;87384.38;;;-2.34;52.65
21623;BME280;10973;46.706;12.340;2023-03-01T04:28:41;87386.06;;;-2.30;52.74
21623;BME280;10973;46.706;12.340;2023-03-01T04:31:19;87388.22;;;-2.23;52.67
21623;BME280;10973;46.706;12.340;2023-03-01T04:33:50;87380.59;;;-2.28;53.05
21623;BME280;10973;46.706;12.340;2023-03-01T04:36:23;87386.22;;;-2.26;52.62
21623;BME280;10973;46.706;12.340;2023-03-01T04:38:51;87385.81;;;-2.20;52.29
21623;BME280;10973;46.706;12.340;2023-03-01T04:41:22;87372.84;;;-2.28;53.04
21623;BME280;10973;46.706;12.340;2023-03-01T04:43:50;87378.81;;;-2.19;52.91
21623;BME280;10973;46.706;12.340;2023-03-01T04:46:20;87383.56;;;-2.12;52.67
21623;BME280;10973;46.706;12.340;2023-03-01T04:48:48;87380.09;;;-2.08;52.57
21623;BME280;10973;46.706;12.340;2023-03-01T04:51:16;87379.22;;;-2.03;52.66
21623;BME280;10973;46.706;12.340;2023-03-01T04:53:44;87374.81;;;-2.03;53.16
21623;BME280;10973;46.706;12.340;2023-03-01T04:56:12;87382.56;;;-2.03;53.14
21623;BME280;10973;46.706;12.340;2023-03-01T04:58:41;87380.44;;;-2.01;52.95
21623;BME280;10973;46.706;12.340;2023-03-01T05:01:19;87368.91;;;-1.95;52.89
21623;BME280;10973;46.706;12.340;2023-03-01T05:03:50;87373.34;;;-1.95;52.66
21623;BME280;10973;46.706;12.340;2023-03-01T05:06:19;87369.38;;;-1.93;52.75
21623;BME280;10973;46.706;12.340;2023-03-01T05:08:50;87374.84;;;-1.94;52.78
21623;BME280;10973;46.706;12.340;2023-03-01T05:11:18;87372.56;;;-1.96;52.88
21623;BME280;10973;46.706;12.340;2023-03-01T05:13:45;87375.44;;;-1.97;52.94
21623;BME280;10973;46.706;12.340;2023-03-01T05:16:12;87378.19;;;-1.94;53.05
21623;BME280;10973;46.706;12.340;2023-03-01T05:18:40;87372.84;;;-1.97;52.93
21623;BME280;10973;46.706;12.340;2023-03-01T05:21:12;87376.50;;;-1.98;52.84
21623;BME280;10973;46.706;12.340;2023-03-01T05:23:40;87381.34;;;-1.97;52.97
21623;BME280;10973;46.706;12.340;2023-03-01T05:26:08;87380.31;;;-1.96;53.07
21623;BME280;10973;46.706;12.340;2023-03-01T05:28:53;87380.00;;;-1.94;52.59
21623;BME280;10973;46.706;12.340;2023-03-01T05:31:21;87382.13;;;-1.96;52.74
21623;BME280;10973;46.706;12.340;2023-03-01T05:33:48;87377.44;;;-1.94;52.85
21623;BME280;10973;46.706;12.340;2023-03-01T05:36:15;87370.75;;;-1.95;53.06
21623;BME280;10973;46.706;12.340;2023-03-01T05:38:42;87372.25;;;-1.94;52.92
21623;BME280;10973;46.706;12.340;2023-03-01T05:41:14;87373.47;;;-2.00;52.69
21623;BME280;10973;46.706;12.340;2023-03-01T05:43:42;87378.44;;;-2.04;52.69
21623;BME280;10973;46.706;12.340;2023-03-01T05:46:09;87378.63;;;-2.00;52.79
21623;BME280;10973;46.706;12.340;2023-03-01T05:48:36;87376.03;;;-2.00;52.84
21623;BME280;10973;46.706;12.340;2023-03-01T05:51:04;87374.16;;;-2.08;52.94
21623;BME280;10973;46.706;12.340;2023-03-01T05:53:31;87378.28;;;-2.07;52.83
21623;BME280;10973;46.706;12.340;2023-03-01T05:55:58;87380.88;;;-2.07;52.63
21623;BME280;10973;46.706;12.340;2023-03-01T05:58:26;87372.66;;;-2.09;53.10
21623;BME280;10973;46.706;12.340;2023-03-01T06:00:54;87380.53;;;-2.14;52.85
21623;BME280;10973;46.706;12.340;2023-03-01T06:03:23;87377.47;;;-2.17;52.87
21623;BME280;10973;46.706;12.340;2023-03-01T06:05:57;87373.47;;;-2.23;52.84
21623;BME280;10973;46.706;12.340;2023-03-01T06:08:24;87373.66;;;-2.19;52.89
21623;BME280;10973;46.706;12.340;2023-03-01T06:10:51;87376.25;;;-2.19;52.92
21623;BME280;10973;46.706;12.340;2023-03-01T06:13:18;87382.19;;;-2.19;52.94
21623;BME280;10973;46.706;12.340;2023-03-01T06:15:46;87372.75;;;-2.23;53.35
21623;BME280;10973;46.706;12.340;2023-03-01T06:18:14;87380.75;;;-2.25;53.14
21623;BME280;10973;46.706;12.340;2023-03-01T06:20:41;87377.13;;;-2.24;52.69
21623;BME280;10973;46.706;12.340;2023-03-01T06:23:08;87376.38;;;-2.24;52.95
21623;BME280;10973;46.706;12.340;2023-03-01T06:25:37;87383.47;;;-2.30;53.09
21623;BME280;10973;46.706;12.340;2023-03-01T06:28:04;87388.03;;;-2.27;53.00
21623;BME280;10973;46.706;12.340;2023-03-01T06:30:32;87378.59;;;-2.31;53.26
21623;BME280;10973;46.706;12.340;2023-03-01T06:32:59;87375.25;;;-2.32;53.00
21623;BME280;10973;46.706;12.340;2023-03-01T06:35:26;87388.66;;;-2.30;52.81
21623;BME280;10973;46.706;12.340;2023-03-01T06:37:54;87388.81;;;-2.26;53.27
21623;BME280;10973;46.706;12.340;2023-03-01T06:40:21;87384.06;;;-2.33;53.35
21623;BME280;10973;46.706;12.340;2023-03-01T06:42:51;87387.16;;;-2.22;53.61
21623;BME280;10973;46.706;12.340;2023-03-01T06:45:19;87386.88;;;-2.21;53.76
21623;BME280;10973;46.706;12.340;2023-03-01T06:47:48;87390.38;;;-2.17;53.76
21623;BME280;10973;46.706;12.340;2023-03-01T06:50:17;87385.84;;;-2.11;53.45
21623;BME280;10973;46.706;12.340;2023-03-01T06:52:48;87389.66;;;-2.08;53.55
21623;BME280;10973;46.706;12.340;2023-03-01T06:55:15;87382.56;;;-2.03;53.24
21623;BME280;10973;46.706;12.340;2023-03-01T06:57:42;87385.28;;;-1.99;53.37
21623;BME280;10973;46.706;12.340;2023-03-01T07:00:11;87390.34;;;-1.94;53.16
21623;BME280;10973;46.706;12.340;2023-03-01T07:02:38;87385.94;;;-1.94;53.12
21623;BME280;10973;46.706;12.340;2023-03-01T07:05:06;87385.81;;;-1.89;52.95
21623;BME280;10973;46.706;12.340;2023-03-01T07:07:34;87391.91;;;-1.85;53.03
21623;BME280;10973;46.706;12.340;2023-03-01T07:10:01;87392.38;;;-1.83;53.26
21623;BME280;10973;46.706;12.340;2023-03-01T07:12:29;87390.13;;;-1.76;52.80
21623;BME280;10973;46.706;12.340;2023-03-01T07:14:56;87392.84;;;-1.72;53.01
21623;BME280;10973;46.706;12.340;2023-03-01T07:17:23;87387.69;;;-1.72;52.74
21623;BME280;10973;46.706;12.340;2023-03-01T07:19:51;87386.78;;;-1.68;52.80
21623;BME280;10973;46.706;12.340;2023-03-01T07:22:18;87393.38;;;-1.62;53.05
21623;BME280;10973;46.706;12.340;2023-03-01T07:24:45;87397.78;;;-1.62;53.09
21623;BME280;10973;46.706;12.340;2023-03-01T07:27:12;87386.22;;;-1.56;53.04
21623;BME280;10973;46.706;12.340;2023-03-01T07:29:40;87389.88;;;-1.57;53.03
21623;BME280;10973;46.706;12.340;2023-03-01T07:32:07;87380.47;;;-1.53;53.12
21623;BME280;10973;46.706;12.340;2023-03-01T07:34:34;87381.97;;;-1.52;52.77
21623;BME280;10973;46.706;12.340;2023-03-01T07:37:02;87375.00;;;-1.43;52.88
21623;BME280;10973;46.706;12.340;2023-03-01T07:39:29;87371.72;;;-1.35;52.85
21623;BME280;10973;46.706;12.340;2023-03-01T07:41:56;87370.34;;;-1.32;52.91
21623;BME280;10973;46.706;12.340;2023-03-01T07:44:24;87372.94;;;-1.24;53.00
21623;BME280;10973;46.706;12.340;2023-03-01T07:46:51;87376.16;;;-1.18;53.10
21623;BME280;10973;46.706;12.340;2023-03-01T07:49:19;87377.34;;;-1.16;53.37
21623;BME280;10973;46.706;12.340;2023-03-01T07:51:46;87375.84;;;-1.08;53.71
21623;BME280;10973;46.706;12.340;2023-03-01T07:54:13;87378.75;;;-1.01;53.47
21623;BME280;10973;46.706;12.340;2023-03-01T07:56:41;87380.13;;;-0.95;53.70
21623;BME280;10973;46.706;12.340;2023-03-01T07:59:08;87376.81;;;-0.87;53.44
21623;BME280;10973;46.706;12.340;2023-03-01T08:01:35;87368.59;;;-0.81;53.56
21623;BME280;10973;46.706;12.340;2023-03-01T08:04:02;87364.47;;;-0.82;53.74
21623;BME280;10973;46.706;12.340;2023-03-01T08:06:30;87362.03;;;-0.78;53.63
21623;BME280;10973;46.706;12.340;2023-03-01T08:08:57;87360.53;;;-0.70;53.63
21623;BME280;10973;46.706;12.340;2023-03-01T08:11:25;87373.59;;;-0.67;53.70
21623;BME280;10973;46.706;12.340;2023-03-01T08:13:52;87364.31;;;-0.68;54.07
21623;BME280;10973;46.706;12.340;2023-03-01T08:16:20;87355.81;;;-0.60;53.75
21623;BME280;10973;46.706;12.340;2023-03-01T08:18:48;87371.00;;;-0.50;54.22
21623;BME280;10973;46.706;12.340;2023-03-01T08:21:18;87366.28;;;-0.39;54.41
21623;BME280;10973;46.706;12.340;2023-03-01T08:23:45;87359.59;;;-0.40;54.30
21623;BME280;10973;46.706;12.340;2023-03-01T08:26:18;87366.44;;;-0.36;54.21
21623;BME280;10973;46.706;12.340;2023-03-01T08:28:49;87371.59;;;-0.27;54.33
21623;BME280;10973;46.706;12.340;2023-03-01T08:31:39;87371.16;;;-0.21;54.19
21623;BME280;10973;46.706;12.340;2023-03-01T08:34:11;87361.97;;;-0.18;54.15
21623;BME280;10973;46.706;12.340;2023-03-01T08:36:42;87369.47;;;-0.17;53.97
21623;BME280;10973;46.706;12.340;2023-03-01T08:39:15;87369.16;;;-0.15;54.27
21623;BME280;10973;46.706;12.340;2023-03-01T08:41:43;87369.91;;;-0.15;54.15
21623;BME280;10973;46.706;12.340;2023-03-01T08:44:14;87365.19;;;-0.13;54.14
21623;BME280;10973;46.706;12.340;2023-03-01T08:46:43;87366.41;;;-0.10;54.30
21623;BME280;10973;46.706;12.340;2023-03-01T08:49:19;87362.88;;;-0.06;54.20
21623;BME280;10973;46.706;12.340;2023-03-01T08:51:47;87367.47;;;-0.03;54.49
21623;BME280;10973;46.706;12.340;2023-03-01T08:54:21;87366.81;;;0.00;54.34
21623;BME280;10973;46.706;12.340;2023-03-01T08:56:49;87362.84;;;0.03;54.20
21623;BME280;10973;46.706;12.340;2023-03-01T08:59:18;87361.47;;;0.06;54.47
21623;BME280;10973;46.706;12.340;2023-03-01T09:01:45;87360.25;;;0.12;54.58
21623;BME280;10973;46.706;12.340;2023-03-01T09:04:14;87354.91;;;0.17;54.68
21623;BME280;10973;46.706;12.340;2023-03-01T09:06:42;87366.34;;;0.16;55.18
21623;BME280;10973;46.706;12.340;2023-03-01T09:09:16;87359.47;;;0.20;55.20
21623;BME280;10973;46.706;12.340;2023-03-01T09:11:45;87351.38;;;0.21;55.11
21623;BME280;10973;46.706;12.340;2023-03-01T09:14:13;87353.34;;;0.24;55.05
21623;BME280;10973;46.706;12.340;2023-03-01T09:16:41;87355.00;;;0.29;54.95
21623;BME280;10973;46.706;12.340;2023-03-01T09:19:09;87353.47;;;0.28;55.08
21623;BME280;10973;46.706;12.340;2023-03-01T09:21:37;87352.41;;;0.29;55.41
21623;BME280;10973;46.706;12.340;2023-03-01T09:24:13;87362.03;;;0.28;55.20
21623;BME280;10973;46.706;12.340;2023-03-01T09:26:41;87357.44;;;0.25;55.38
21623;BME280;10973;46.706;12.340;2023-03-01T09:29:09;87352.59;;;0.24;55.64
21623;BME280;10973;46.706;12.340;2023-03-01T09:31:37;87356.06;;;0.28;55.49
21623;BME280;10973;46.706;12.340;2023-03-01T09:34:05;87351.66;;;0.28;55.23
21623;BME280;10973;46.706;12.340;2023-03-01T09:36:33;87359.13;;;0.30;55.29
21623;BME280;10973;46.706;12.340;2023-03-01T09:39:02;87345.09;;;0.31;55.10
21623;BME280;10973;46.706;12.340;2023-03-01T09:42:00;87350.88;;;0.36;54.90
21623;BME280;10973;46.706;12.340;2023-03-01T09:44:40;87349.66;;;0.34;55.05
21623;BME280;10973;46.706;12.340;2023-03-01T09:47:34;87338.97;;;0.35;54.84
21623;BME280;10973;46.706;12.340;2023-03-01T09:50:19;87343.13;;;0.28;54.96
21623;BME280;10973;46.706;12.340;2023-03-01T09:53:10;87343.00;;;0.24;55.21
21623;BME280;10973;46.706;12.340;2023-03-01T09:58:36;87342.06;;;0.29;55.18
21623;BME280;10973;46.706;12.340;2023-03-01T10:09:43;87337.06;;;0.53;54.70
21623;BME280;10973;46.706;12.340;2023-03-01T10:12:19;87338.16;;;0.52;55.19
21623;BME280;10973;46.706;12.340;2023-03-01T10:15:10;87333.53;;;0.57;55.03
21623;BME280;10973;46.706;12.340;2023-03-01T10:18:06;87335.06;;;0.58;55.05
21623;BME280;10973;46.706;12.340;2023-03-01T10:20:59;87324.69;;;0.58;54.96
21623;BME280;10973;46.706;12.340;2023-03-01T10:23:31;87327.13;;;0.63;55.13
21623;BME280;10973;46.706;12.340;2023-03-01T10:29:10;87323.88;;;0.66;55.20
21623;BME280;10973;46.706;12.340;2023-03-01T10:31:49;87321.00;;;0.68;55.16
21623;BME280;10973;46.706;12.340;2023-03-01T10:34:29;87309.97;;;0.71;55.20
21623;BME280;10973;46.706;12.340;2023-03-01T10:37:12;87304.50;;;0.73;55.28
21623;BME280;10973;46.706;12.340;2023-03-01T10:42:39;87310.88;;;0.75;55.21
21623;BME280;10973;46.706;12.340;2023-03-01T10:48:34;87300.97;;;0.77;54.96
21623;BME280;10973;46.706;12.340;2023-03-01T10:53:42;87307.03;;;0.81;55.05
21623;BME280;10973;46.706;12.340;2023-03-01T11:00:26;87292.34;;;0.85;54.86
21623;BME280;10973;46.706;12.340;2023-03-01T11:03:11;87291.22;;;0.95;54.80
21623;BME280;10973;46.706;12.340;2023-03-01T11:06:01;87294.88;;;0.94;54.64
21623;BME280;10973;46.706;12.340;2023-03-01T11:08:45;87289.84;;;0.97;54.46
21623;BME280;10973;46.706;12.340;2023-03-01T11:14:00;87294.19;;;1.05;54.77
21623;BME280;10973;46.706;12.340;2023-03-01T11:16:41;87292.81;;;1.08;54.44
21623;BME280;10973;46.706;12.340;2023-03-01T11:22:02;87296.44;;;1.15;53.83
21623;BME280;10973;46.706;12.340;2023-03-01T11:24:49;87298.25;;;1.15;54.05
21623;BME280;10973;46.706;12.340;2023-03-01T11:27:41;87302.50;;;1.19;54.15
21623;BME280;10973;46.706;12.340;2023-03-01T11:36:05;87290.41;;;1.23;53.60
21623;BME280;10973;46.706;12.340;2023-03-01T11:38:38;87293.31;;;1.22;53.86
21623;BME280;10973;46.706;12.340;2023-03-01T11:41:16;87302.75;;;1.26;53.66
21623;BME280;10973;46.706;12.340;2023-03-01T11:43:59;87298.09;;;1.32;53.96
21623;BME280;10973;46.706;12.340;2023-03-01T11:52:34;87284.06;;;1.33;54.24
21623;BME280;10973;46.706;12.340;2023-03-01T12:01:48;87291.97;;;1.36;54.48
21623;BME280;10973;46.706;12.340;2023-03-01T12:07:37;87295.84;;;1.30;54.55
21623;BME280;10973;46.706;12.340;2023-03-01T12:10:57;87289.16;;;1.29;54.99
21623;BME280;10973;46.706;12.340;2023-03-01T12:14:03;87292.47;;;1.30;55.68
21623;BME280;10973;46.706;12.340;2023-03-01T12:49:10;87273.31;;;1.55;56.32
21623;BME280;10973;46.706;12.340;2023-03-01T12:51:53;87281.44;;;1.54;56.50
21623;BME280;10973;46.706;12.340;2023-03-01T12:54:31;87275.81;;;1.52;56.47
21623;BME280;10973;46.706;12.340;2023-03-01T12:57:29;87267.59;;;1.50;56.35
21623;BME280;10973;46.706;12.340;2023-03-01T13:00:36;87272.25;;;1.56;56.54
21623;BME280;10973;46.706;12.340;2023-03-01T13:06:41;87268.47;;;1.54;56.79
21623;BME280;10973;46.706;12.340;2023-03-01T13:18:02;87267.16;;;1.48;57.57
21623;BME280;10973;46.706;12.340;2023-03-01T13:26:17;87255.56;;;1.45;57.76
21623;BME280;10973;46.706;12.340;2023-03-01T13:33:48;87260.31;;;1.43;58.09
21623;BME280;10973;46.706;12.340;2023-03-01T13:39:02;87267.59;;;1.50;57.74
21623;BME280;10973;46.706;12.340;2023-03-01T13:44:32;87263.78;;;1.47;57.66
21623;BME280;10973;46.706;12.340;2023-03-01T13:47:17;87263.34;;;1.45;57.94
21623;BME280;10973;46.706;12.340;2023-03-01T13:49:59;87260.88;;;1.49;57.83
21623;BME280;10973;46.706;12.340;2023-03-01T13:52:50;87258.03;;;1.41;58.12
21623;BME280;10973;46.706;12.340;2023-03-01T13:55:36;87267.22;;;1.39;58.33
21623;BME280;10973;46.706;12.340;2023-03-01T13:58:30;87267.44;;;1.34;58.16
21623;BME280;10973;46.706;12.340;2023-03-01T14:01:04;87266.97;;;1.32;58.12
21623;BME280;10973;46.706;12.340;2023-03-01T14:03:40;87262.97;;;1.34;58.54
21623;BME280;10973;46.706;12.340;2023-03-01T14:06:23;87264.06;;;1.33;58.28
21623;BME280;10973;46.706;12.340;2023-03-01T14:09:02;87265.78;;;1.29;58.15
21623;BME280;10973;46.706;12.340;2023-03-01T14:11:56;87258.22;;;1.36;58.20
21623;BME280;10973;46.706;12.340;2023-03-01T14:18:12;87249.81;;;1.39;58.05
21623;BME280;10973;46.706;12.340;2023-03-01T14:20:45;87247.00;;;1.44;57.90
21623;BME280;10973;46.706;12.340;2023-03-01T14:23:16;87248.66;;;1.49;57.80
21623;BME280;10973;46.706;12.340;2023-03-01T14:25:57;87243.13;;;1.51;57.57
21623;BME280;10973;46.706;12.340;2023-03-01T14:28:31;87242.69;;;1.49;57.77
21623;BME280;10973;46.706;12.340;2023-03-01T14:31:00;87234.03;;;1.44;58.19
21623;BME280;10973;46.706;12.340;2023-03-01T14:33:36;87246.16;;;1.53;57.96
21623;BME280;10973;46.706;12.340;2023-03-01T14:36:06;87240.66;;;1.54;57.98
21623;BME280;10973;46.706;12.340;2023-03-01T14:38:37;87227.56;;;1.51;57.96
21623;BME280;10973;46.706;12.340;2023-03-01T14:41:28;87225.53;;;1.56;58.05
21623;BME280;10973;46.706;12.340;2023-03-01T14:43:57;87222.16;;;1.56;58.22
21623;BME280;10973;46.706;12.340;2023-03-01T14:46:41;87224.56;;;1.61;58.04
21623;BME280;10973;46.706;12.340;2023-03-01T14:49:19;87214.59;;;1.63;57.70
21623;BME280;10973;46.706;12.340;2023-03-01T14:52:04;87210.81;;;1.60;57.85
21623;BME280;10973;46.706;12.340;2023-03-01T14:54:53;87205.09;;;1.67;57.96
21623;BME280;10973;46.706;12.340;2023-03-01T14:57:25;87207.25;;;1.65;57.81
21623;BME280;10973;46.706;12.340;2023-03-01T14:59:57;87205.72;;;1.64;57.49
21623;BME280;10973;46.706;12.340;2023-03-01T15:02:27;87217.75;;;1.68;57.37
21623;BME280;10973;46.706;12.340;2023-03-01T15:04:58;87211.81;;;1.68;57.49
21623;BME280;10973;46.706;12.340;2023-03-01T15:07:31;87206.91;;;1.66;57.54
21623;BME280;10973;46.706;12.340;2023-03-01T15:10:02;87209.22;;;1.68;57.30
21623;BME280;10973;46.706;12.340;2023-03-01T15:12:40;87213.75;;;1.71;57.48
21623;BME280;10973;46.706;12.340;2023-03-01T15:15:40;87210.28;;;1.67;57.60
21623;BME280;10973;46.706;12.340;2023-03-01T15:21:52;87201.97;;;1.73;57.57
21623;BME280;10973;46.706;12.340;2023-03-01T15:24:26;87200.13;;;1.74;57.35
21623;BME280;10973;46.706;12.340;2023-03-01T15:26:58;87201.19;;;1.73;57.80
21623;BME280;10973;46.706;12.340;2023-03-01T15:29:30;87199.78;;;1.75;57.19
21623;BME280;10973;46.706;12.340;2023-03-01T15:32:03;87192.00;;;1.75;57.51
21623;BME280;10973;46.706;12.340;2023-03-01T15:34:35;87185.19;;;1.71;57.35
21623;BME280;10973;46.706;12.340;2023-03-01T15:37:06;87189.50;;;1.67;57.66
21623;BME280;10973;46.706;12.340;2023-03-01T15:39:40;87194.84;;;1.70;57.59